sensor_id;sensor_type;location;lat;lon;timestamp;temperature;humidity
20459;DHT22;10388;52.314;7.938;2023-04-24T00:01:42;10.40;99.90
20459;DHT22;10388;52.314;7.938;2023-04-24T00:04:13;10.40;99.90
20459;DHT22;10388;52.314;7.938;2023-04-24T00:06:46;10.40;99.90
20459;DHT22;10388;52.314;7.938;2023-04-24T00:09:19;10.40;99.90
20459;DHT22;10388;52.314;7.938;2023-04-24T00:11:50;10.40;99.90
20459;DHT22;10388;52.314;7.938;2023-04-24T00:14:21;10.40;99.90
20459;DHT22;10388;52.314;7.938;2023-04-24T00:16:51;10.40;99.90
20459;DHT22;10388;52.314;7.938;2023-04-24T00:19:22;10.40;99.90
20459;DHT22;10388;52.314;7.938;2023-04-24T00:21:55;10.40;99.90
20459;DHT22;10388;52.314;7.938;2023-04-24T00:24:34;10.40;99.90
20459;DHT22;10388;52.314;7.938;2023-04-24T00:27:12;10.30;99.90
20459;DHT22;10388;52.314;7.938;2023-04-24T00:29:48;10.40;99.90
20459;DHT22;10388;52.314;7.938;2023-04-24T00:32:19;10.40;99.90
20459;DHT22;10388;52.314;7.938;2023-04-24T00:34:49;10.40;99.90
20459;DHT22;10388;52.314;7.938;2023-04-24T00:37:20;10.40;99.90
20459;DHT22;10388;52.314;7.938;2023-04-24T00:39:53;10.40;99.90
20459;DHT22;10388;52.314;7.938;2023-04-24T00:42:24;10.30;99.90
20459;DHT22;10388;52.314;7.938;2023-04-24T00:44:56;10.30;99.90
20459;DHT22;10388;52.314;7.938;2023-04-24T00:47:26;10.20;99.90
20459;DHT22;10388;52.314;7.938;2023-04-24T00:50:04;10.20;99.90
20459;DHT22;10388;52.314;7.938;2023-04-24T00:52:37;10.20;99.90
20459;DHT22;10388;52.314;7.938;2023-04-24T00:55:10;10.30;99.90
20459;DHT22;10388;52.314;7.938;2023-04-24T00:57:41;10.30;99.90
20459;DHT22;10388;52.314;7.938;2023-04-24T01:00:12;10.20;99.90
20459;DHT22;10388;52.314;7.938;2023-04-24T01:02:44;10.30;99.90
20459;DHT22;10388;52.314;7.938;2023-04-24T01:05:15;10.20;99.90
20459;DHT22;10388;52.314;7.938;2023-04-24T01:07:47;10.30;99.90
20459;DHT22;10388;52.314;7.938;2023-04-24T01:10:22;10.20;99.90
20459;DHT22;10388;52.314;7.938;2023-04-24T01:13:00;10.30;99.90
20459;DHT22;10388;52.314;7.938;2023-04-24T01:15:31;10.30;99.90
20459;DHT22;10388;52.314;7.938;2023-04-24T01:18:02;10.30;99.90
20459;DHT22;10388;52.314;7.938;2023-04-24T01:20:57;10.30;99.90
20459;DHT22;10388;52.314;7.938;2023-04-24T01:23:33;10.30;99.90
20459;DHT22;10388;52.314;7.938;2023-04-24T01:26:04;10.30;99.90
20459;DHT22;10388;52.314;7.938;2023-04-24T01:28:35;10.30;99.90
20459;DHT22;10388;52.314;7.938;2023-04-24T01:31:09;10.30;99.90
20459;DHT22;10388;52.314;7.938;2023-04-24T01:33:45;10.30;99.90
20459;DHT22;10388;52.314;7.938;2023-04-24T01:36:16;10.30;99.90
20459;DHT22;10388;52.314;7.938;2023-04-24T01:38:47;10.30;99.90
20459;DHT22;10388;52.314;7.938;2023-04-24T01:41:18;10.30;99.90
20459;DHT22;10388;52.314;7.938;2023-04-24T01:43:51;10.30;99.90
20459;DHT22;10388;52.314;7.938;2023-04-24T01:46:22;10.30;99.90
20459;DHT22;10388;52.314;7.938;2023-04-24T01:48:53;10.30;99.90
20459;DHT22;10388;52.314;7.938;2023-04-24T01:51:24;10.30;99.90
20459;DHT22;10388;52.314;7.938;2023-04-24T01:53:57;10.30;99.90
20459;DHT22;10388;52.314;7.938;2023-04-24T01:56:33;10.30;99.90
20459;DHT22;10388;52.314;7.938;2023-04-24T01:59:06;10.30;99.90
20459;DHT22;10388;52.314;7.938;2023-04-24T02:01:37;10.30;99.90
20459;DHT22;10388;52.314;7.938;2023-04-24T02:04:08;10.30;99.90
20459;DHT22;10388;52.314;7.938;2023-04-24T02:06:39;10.30;99.90
20459;DHT22;10388;52.314;7.938;2023-04-24T02:09:10;10.30;99.90
20459;DHT22;10388;52.314;7.938;2023-04-24T02:11:41;10.30;99.90
20459;DHT22;10388;52.314;7.938;2023-04-24T02:14:11;10.30;99.90
20459;DHT22;10388;52.314;7.938;2023-04-24T02:16:42;10.30;99.90
20459;DHT22;10388;52.314;7.938;2023-04-24T02:19:16;10.30;99.90
20459;DHT22;10388;52.314;7.938;2023-04-24T02:21:47;10.30;99.90
20459;DHT22;10388;52.314;7.938;2023-04-24T02:24:18;10.20;99.90
20459;DHT22;10388;52.314;7.938;2023-04-24T02:26:51;10.20;99.90
20459;DHT22;10388;52.314;7.938;2023-04-24T02:29:21;10.20;99.90
20459;DHT22;10388;52.314;7.938;2023-04-24T02:31:53;10.20;99.90
20459;DHT22;10388;52.314;7.938;2023-04-24T02:34:23;10.20;99.90
20459;DHT22;10388;52.314;7.938;2023-04-24T02:36:54;10.20;99.90
20459;DHT22;10388;52.314;7.938;2023-04-24T02:39:25;10.20;99.90
20459;DHT22;10388;52.314;7.938;2023-04-24T02:41:56;10.20;99.90
20459;DHT22;10388;52.314;7.938;2023-04-24T02:44:26;10.20;99.90
20459;DHT22;10388;52.314;7.938;2023-04-24T02:46:57;10.20;99.90
20459;DHT22;10388;52.314;7.938;2023-04-24T02:49:30;10.20;99.90
20459;DHT22;10388;52.314;7.938;2023-04-24T02:52:01;10.10;99.90
20459;DHT22;10388;52.314;7.938;2023-04-24T02:54:31;10.10;99.90
20459;DHT22;10388;52.314;7.938;2023-04-24T02:57:05;10.10;99.90
20459;DHT22;10388;52.314;7.938;2023-04-24T02:59:36;10.10;99.90
20459;DHT22;10388;52.314;7.938;2023-04-24T03:02:07;10.20;99.90
20459;DHT22;10388;52.314;7.938;2023-04-24T03:04:37;10.10;99.90
20459;DHT22;10388;52.314;7.938;2023-04-24T03:07:08;10.10;99.90
20459;DHT22;10388;52.314;7.938;2023-04-24T03:09:38;10.10;99.90
20459;DHT22;10388;52.314;7.938;2023-04-24T03:12:09;10.10;99.90
20459;DHT22;10388;52.314;7.938;2023-04-24T03:14:40;10.10;99.90
20459;DHT22;10388;52.314;7.938;2023-04-24T03:17:10;10.10;99.90
20459;DHT22;10388;52.314;7.938;2023-04-24T03:19:41;10.10;99.90
20459;DHT22;10388;52.314;7.938;2023-04-24T03:22:12;10.10;99.90
20459;DHT22;10388;52.314;7.938;2023-04-24T03:24:45;10.10;99.90
20459;DHT22;10388;52.314;7.938;2023-04-24T03:27:36;10.10;99.90
20459;DHT22;10388;52.314;7.938;2023-04-24T03:30:08;10.10;99.90
20459;DHT22;10388;52.314;7.938;2023-04-24T03:32:50;10.10;99.90
20459;DHT22;10388;52.314;7.938;2023-04-24T03:35:21;10.00;99.90
20459;DHT22;10388;52.314;7.938;2023-04-24T03:37:52;10.00;99.90
20459;DHT22;10388;52.314;7.938;2023-04-24T03:40:22;10.10;99.90
20459;DHT22;10388;52.314;7.938;2023-04-24T03:42:53;10.10;99.90
20459;DHT22;10388;52.314;7.938;2023-04-24T03:45:23;10.00;99.90
20459;DHT22;10388;52.314;7.938;2023-04-24T03:47:54;10.00;99.90
20459;DHT22;10388;52.314;7.938;2023-04-24T03:50:25;10.00;99.90
20459;DHT22;10388;52.314;7.938;2023-04-24T03:52:56;9.90;99.90
20459;DHT22;10388;52.314;7.938;2023-04-24T03:55:27;9.90;99.90
20459;DHT22;10388;52.314;7.938;2023-04-24T03:57:57;9.90;99.90
20459;DHT22;10388;52.314;7.938;2023-04-24T04:00:28;9.90;99.90
20459;DHT22;10388;52.314;7.938;2023-04-24T04:02:59;9.90;99.90
20459;DHT22;10388;52.314;7.938;2023-04-24T04:05:29;9.90;99.90
20459;DHT22;10388;52.314;7.938;2023-04-24T04:08:00;9.80;99.90
20459;DHT22;10388;52.314;7.938;2023-04-24T04:10:31;9.80;99.90
20459;DHT22;10388;52.314;7.938;2023-04-24T04:13:01;9.80;99.90
20459;DHT22;10388;52.314;7.938;2023-04-24T04:15:32;9.80;99.90
20459;DHT22;10388;52.314;7.938;2023-04-24T04:18:02;9.70;99.90
20459;DHT22;10388;52.314;7.938;2023-04-24T04:20:33;9.70;99.90
20459;DHT22;10388;52.314;7.938;2023-04-24T04:23:03;9.70;99.90
20459;DHT22;10388;52.314;7.938;2023-04-24T04:25:34;9.70;99.90
20459;DHT22;10388;52.314;7.938;2023-04-24T04:28:05;9.70;99.90
20459;DHT22;10388;52.314;7.938;2023-04-24T04:30:35;9.70;99.90
20459;DHT22;10388;52.314;7.938;2023-04-24T04:33:08;9.70;99.90
20459;DHT22;10388;52.314;7.938;2023-04-24T04:35:39;9.70;99.90
20459;DHT22;10388;52.314;7.938;2023-04-24T04:38:10;9.70;99.90
20459;DHT22;10388;52.314;7.938;2023-04-24T04:40:41;9.70;99.90
20459;DHT22;10388;52.314;7.938;2023-04-24T04:43:12;9.70;99.90
20459;DHT22;10388;52.314;7.938;2023-04-24T04:45:46;9.70;99.90
20459;DHT22;10388;52.314;7.938;2023-04-24T04:48:18;9.70;99.90
20459;DHT22;10388;52.314;7.938;2023-04-24T04:50:49;9.70;99.90
20459;DHT22;10388;52.314;7.938;2023-04-24T04:53:19;9.60;99.90
20459;DHT22;10388;52.314;7.938;2023-04-24T04:55:50;9.70;99.90
20459;DHT22;10388;52.314;7.938;2023-04-24T04:58:20;9.60;99.90
20459;DHT22;10388;52.314;7.938;2023-04-24T05:00:51;9.60;99.90
20459;DHT22;10388;52.314;7.938;2023-04-24T05:03:22;9.60;99.90
20459;DHT22;10388;52.314;7.938;2023-04-24T05:05:53;9.60;99.90
20459;DHT22;10388;52.314;7.938;2023-04-24T05:08:23;9.60;99.90
20459;DHT22;10388;52.314;7.938;2023-04-24T05:10:54;9.60;99.90
20459;DHT22;10388;52.314;7.938;2023-04-24T05:13:25;9.60;99.90
20459;DHT22;10388;52.314;7.938;2023-04-24T05:15:56;9.70;99.90
20459;DHT22;10388;52.314;7.938;2023-04-24T05:18:27;9.70;99.90
20459;DHT22;10388;52.314;7.938;2023-04-24T05:20:57;9.70;99.90
20459;DHT22;10388;52.314;7.938;2023-04-24T05:23:28;9.70;99.90
20459;DHT22;10388;52.314;7.938;2023-04-24T05:25:59;9.70;99.90
20459;DHT22;10388;52.314;7.938;2023-04-24T05:28:29;9.70;99.90
20459;DHT22;10388;52.314;7.938;2023-04-24T05:31:00;9.80;99.90
20459;DHT22;10388;52.314;7.938;2023-04-24T05:33:31;9.80;99.90
20459;DHT22;10388;52.314;7.938;2023-04-24T05:36:02;9.80;99.90
20459;DHT22;10388;52.314;7.938;2023-04-24T05:38:32;9.80;99.90
20459;DHT22;10388;52.314;7.938;2023-04-24T05:41:03;9.90;99.90
20459;DHT22;10388;52.314;7.938;2023-04-24T05:43:33;9.90;99.90
20459;DHT22;10388;52.314;7.938;2023-04-24T05:46:04;9.90;99.90
20459;DHT22;10388;52.314;7.938;2023-04-24T05:48:34;9.90;99.90
20459;DHT22;10388;52.314;7.938;2023-04-24T05:51:05;9.90;99.90
20459;DHT22;10388;52.314;7.938;2023-04-24T05:53:36;9.90;99.90
20459;DHT22;10388;52.314;7.938;2023-04-24T05:56:06;9.90;99.90
20459;DHT22;10388;52.314;7.938;2023-04-24T05:58:37;10.00;99.90
20459;DHT22;10388;52.314;7.938;2023-04-24T06:01:08;10.00;99.90
20459;DHT22;10388;52.314;7.938;2023-04-24T06:03:38;10.10;99.90
20459;DHT22;10388;52.314;7.938;2023-04-24T06:06:09;10.00;99.90
20459;DHT22;10388;52.314;7.938;2023-04-24T06:08:40;10.10;99.90
20459;DHT22;10388;52.314;7.938;2023-04-24T06:11:12;10.10;99.90
20459;DHT22;10388;52.314;7.938;2023-04-24T06:13:43;10.10;99.90
20459;DHT22;10388;52.314;7.938;2023-04-24T06:16:13;10.20;99.90
20459;DHT22;10388;52.314;7.938;2023-04-24T06:18:44;10.40;99.90
20459;DHT22;10388;52.314;7.938;2023-04-24T06:21:17;10.50;99.90
20459;DHT22;10388;52.314;7.938;2023-04-24T06:23:48;10.50;99.90
20459;DHT22;10388;52.314;7.938;2023-04-24T06:26:19;10.60;99.90
20459;DHT22;10388;52.314;7.938;2023-04-24T06:28:51;10.70;99.90
20459;DHT22;10388;52.314;7.938;2023-04-24T06:31:21;10.70;99.90
20459;DHT22;10388;52.314;7.938;2023-04-24T06:33:52;10.80;99.90
20459;DHT22;10388;52.314;7.938;2023-04-24T06:36:23;10.70;99.90
20459;DHT22;10388;52.314;7.938;2023-04-24T06:38:53;10.80;99.90
20459;DHT22;10388;52.314;7.938;2023-04-24T06:41:24;10.90;99.90
20459;DHT22;10388;52.314;7.938;2023-04-24T06:43:55;10.80;99.90
20459;DHT22;10388;52.314;7.938;2023-04-24T06:46:26;10.60;99.90
20459;DHT22;10388;52.314;7.938;2023-04-24T06:48:57;10.50;99.90
20459;DHT22;10388;52.314;7.938;2023-04-24T06:51:28;10.50;99.90
20459;DHT22;10388;52.314;7.938;2023-04-24T06:53:59;10.50;99.90
20459;DHT22;10388;52.314;7.938;2023-04-24T06:56:29;10.60;99.90
20459;DHT22;10388;52.314;7.938;2023-04-24T06:59:01;10.70;99.90
20459;DHT22;10388;52.314;7.938;2023-04-24T07:01:31;10.70;99.90
20459;DHT22;10388;52.314;7.938;2023-04-24T07:04:02;10.70;99.90
20459;DHT22;10388;52.314;7.938;2023-04-24T07:06:32;10.80;99.90
20459;DHT22;10388;52.314;7.938;2023-04-24T07:09:03;10.80;99.90
20459;DHT22;10388;52.314;7.938;2023-04-24T07:11:33;10.80;99.90
20459;DHT22;10388;52.314;7.938;2023-04-24T07:14:04;10.70;99.90
20459;DHT22;10388;52.314;7.938;2023-04-24T07:16:34;10.70;99.90
20459;DHT22;10388;52.314;7.938;2023-04-24T07:19:05;10.70;99.90
20459;DHT22;10388;52.314;7.938;2023-04-24T07:21:36;10.70;99.90
20459;DHT22;10388;52.314;7.938;2023-04-24T07:24:06;10.60;99.90
20459;DHT22;10388;52.314;7.938;2023-04-24T07:26:41;10.60;99.90
20459;DHT22;10388;52.314;7.938;2023-04-24T07:29:11;10.70;99.90
20459;DHT22;10388;52.314;7.938;2023-04-24T07:31:42;10.60;99.90
20459;DHT22;10388;52.314;7.938;2023-04-24T07:34:13;10.70;99.90
20459;DHT22;10388;52.314;7.938;2023-04-24T07:36:43;10.80;99.90
20459;DHT22;10388;52.314;7.938;2023-04-24T07:39:14;10.90;99.90
20459;DHT22;10388;52.314;7.938;2023-04-24T07:41:44;10.80;99.90
20459;DHT22;10388;52.314;7.938;2023-04-24T07:44:15;10.90;99.90
20459;DHT22;10388;52.314;7.938;2023-04-24T07:46:45;10.90;99.90
20459;DHT22;10388;52.314;7.938;2023-04-24T07:49:16;11.00;99.90
20459;DHT22;10388;52.314;7.938;2023-04-24T07:51:46;10.90;99.90
20459;DHT22;10388;52.314;7.938;2023-04-24T07:54:17;10.80;99.90
20459;DHT22;10388;52.314;7.938;2023-04-24T07:56:48;10.70;99.90
20459;DHT22;10388;52.314;7.938;2023-04-24T07:59:18;10.60;99.90
20459;DHT22;10388;52.314;7.938;2023-04-24T08:01:49;10.50;99.90
20459;DHT22;10388;52.314;7.938;2023-04-24T08:04:19;10.50;99.90
20459;DHT22;10388;52.314;7.938;2023-04-24T08:06:50;10.40;99.90
20459;DHT22;10388;52.314;7.938;2023-04-24T08:09:20;10.30;99.90
20459;DHT22;10388;52.314;7.938;2023-04-24T08:11:51;10.40;99.90
20459;DHT22;10388;52.314;7.938;2023-04-24T08:14:21;10.50;99.90
20459;DHT22;10388;52.314;7.938;2023-04-24T08:16:54;10.50;99.90
20459;DHT22;10388;52.314;7.938;2023-04-24T08:19:26;10.40;99.90
20459;DHT22;10388;52.314;7.938;2023-04-24T08:21:56;10.20;99.90
20459;DHT22;10388;52.314;7.938;2023-04-24T08:24:27;10.20;99.90
20459;DHT22;10388;52.314;7.938;2023-04-24T08:26:57;10.20;99.90
20459;DHT22;10388;52.314;7.938;2023-04-24T08:29:28;10.20;99.90
20459;DHT22;10388;52.314;7.938;2023-04-24T08:31:59;10.30;99.90
20459;DHT22;10388;52.314;7.938;2023-04-24T08:34:29;10.40;99.90
20459;DHT22;10388;52.314;7.938;2023-04-24T08:37:00;10.50;99.90
20459;DHT22;10388;52.314;7.938;2023-04-24T08:39:31;10.50;99.90
20459;DHT22;10388;52.314;7.938;2023-04-24T08:42:01;10.50;99.90
20459;DHT22;10388;52.314;7.938;2023-04-24T08:44:36;10.50;99.90
20459;DHT22;10388;52.314;7.938;2023-04-24T08:47:07;10.40;99.90
20459;DHT22;10388;52.314;7.938;2023-04-24T08:49:38;10.40;99.90
20459;DHT22;10388;52.314;7.938;2023-04-24T08:52:09;10.30;99.90
20459;DHT22;10388;52.314;7.938;2023-04-24T08:54:43;10.30;99.90
20459;DHT22;10388;52.314;7.938;2023-04-24T08:57:18;10.30;99.90
20459;DHT22;10388;52.314;7.938;2023-04-24T08:59:49;10.30;99.90
20459;DHT22;10388;52.314;7.938;2023-04-24T09:02:21;10.30;99.90
20459;DHT22;10388;52.314;7.938;2023-04-24T09:04:52;10.10;99.90
20459;DHT22;10388;52.314;7.938;2023-04-24T09:07:25;10.10;99.90
20459;DHT22;10388;52.314;7.938;2023-04-24T09:09:58;10.10;99.90
20459;DHT22;10388;52.314;7.938;2023-04-24T09:12:29;10.10;99.90
20459;DHT22;10388;52.314;7.938;2023-04-24T09:15:02;10.20;99.90
20459;DHT22;10388;52.314;7.938;2023-04-24T09:17:33;10.20;99.90
20459;DHT22;10388;52.314;7.938;2023-04-24T09:20:06;10.10;99.90
20459;DHT22;10388;52.314;7.938;2023-04-24T09:22:37;10.20;99.90
20459;DHT22;10388;52.314;7.938;2023-04-24T09:25:08;10.20;99.90
20459;DHT22;10388;52.314;7.938;2023-04-24T09:27:43;10.20;99.90
20459;DHT22;10388;52.314;7.938;2023-04-24T09:30:21;10.20;99.90
20459;DHT22;10388;52.314;7.938;2023-04-24T09:33:13;10.30;99.90
20459;DHT22;10388;52.314;7.938;2023-04-24T09:35:51;10.20;99.90
20459;DHT22;10388;52.314;7.938;2023-04-24T09:38:37;10.30;99.90
20459;DHT22;10388;52.314;7.938;2023-04-24T09:41:13;10.30;99.90
20459;DHT22;10388;52.314;7.938;2023-04-24T09:43:43;10.40;99.90
20459;DHT22;10388;52.314;7.938;2023-04-24T09:46:14;10.50;99.90
20459;DHT22;10388;52.314;7.938;2023-04-24T09:48:48;10.50;99.90
20459;DHT22;10388;52.314;7.938;2023-04-24T09:51:33;10.50;99.90
20459;DHT22;10388;52.314;7.938;2023-04-24T09:56:51;10.40;99.90
20459;DHT22;10388;52.314;7.938;2023-04-24T09:59:21;10.30;99.90
20459;DHT22;10388;52.314;7.938;2023-04-24T10:01:52;10.50;99.90
20459;DHT22;10388;52.314;7.938;2023-04-24T10:04:24;10.70;99.90
20459;DHT22;10388;52.314;7.938;2023-04-24T10:06:56;10.90;99.90
20459;DHT22;10388;52.314;7.938;2023-04-24T10:09:27;11.00;99.90
20459;DHT22;10388;52.314;7.938;2023-04-24T10:11:58;10.80;99.90
20459;DHT22;10388;52.314;7.938;2023-04-24T10:14:30;10.70;99.90
20459;DHT22;10388;52.314;7.938;2023-04-24T10:17:01;10.50;99.90
20459;DHT22;10388;52.314;7.938;2023-04-24T10:19:32;10.50;99.90
20459;DHT22;10388;52.314;7.938;2023-04-24T10:22:04;10.40;99.90
20459;DHT22;10388;52.314;7.938;2023-04-24T10:24:35;10.20;99.90
20459;DHT22;10388;52.314;7.938;2023-04-24T10:27:08;10.10;99.90
20459;DHT22;10388;52.314;7.938;2023-04-24T10:29:40;10.10;99.90
20459;DHT22;10388;52.314;7.938;2023-04-24T10:32:11;10.00;99.90
20459;DHT22;10388;52.314;7.938;2023-04-24T10:34:42;10.00;99.90
20459;DHT22;10388;52.314;7.938;2023-04-24T10:37:12;9.80;99.90
20459;DHT22;10388;52.314;7.938;2023-04-24T10:39:48;9.60;99.90
20459;DHT22;10388;52.314;7.938;2023-04-24T10:42:18;9.50;99.90
20459;DHT22;10388;52.314;7.938;2023-04-24T10:44:49;9.40;99.90
20459;DHT22;10388;52.314;7.938;2023-04-24T10:47:20;9.40;99.90
20459;DHT22;10388;52.314;7.938;2023-04-24T10:49:51;9.40;99.90
20459;DHT22;10388;52.314;7.938;2023-04-24T10:52:22;9.30;99.90
20459;DHT22;10388;52.314;7.938;2023-04-24T10:54:53;9.20;99.90
20459;DHT22;10388;52.314;7.938;2023-04-24T10:57:28;9.30;99.90
20459;DHT22;10388;52.314;7.938;2023-04-24T11:00:18;9.30;99.90
20459;DHT22;10388;52.314;7.938;2023-04-24T11:02:48;9.40;99.90
20459;DHT22;10388;52.314;7.938;2023-04-24T11:05:21;9.50;99.90
20459;DHT22;10388;52.314;7.938;2023-04-24T11:08:14;9.30;99.90
20459;DHT22;10388;52.314;7.938;2023-04-24T11:10:47;9.30;99.90
20459;DHT22;10388;52.314;7.938;2023-04-24T11:13:25;9.30;99.90
20459;DHT22;10388;52.314;7.938;2023-04-24T11:16:23;9.20;99.90
20459;DHT22;10388;52.314;7.938;2023-04-24T11:19:07;9.10;99.90
20459;DHT22;10388;52.314;7.938;2023-04-24T11:21:42;9.00;99.90
20459;DHT22;10388;52.314;7.938;2023-04-24T11:27:11;9.10;99.90
20459;DHT22;10388;52.314;7.938;2023-04-24T11:32:34;9.10;99.90
20459;DHT22;10388;52.314;7.938;2023-04-24T11:37:45;9.20;99.90
20459;DHT22;10388;52.314;7.938;2023-04-24T11:40:18;9.10;99.90
20459;DHT22;10388;52.314;7.938;2023-04-24T11:42:51;9.10;99.90
20459;DHT22;10388;52.314;7.938;2023-04-24T11:45:29;9.10;99.90
20459;DHT22;10388;52.314;7.938;2023-04-24T11:48:00;9.20;99.90
20459;DHT22;10388;52.314;7.938;2023-04-24T11:50:32;9.30;99.90
20459;DHT22;10388;52.314;7.938;2023-04-24T11:53:04;9.20;99.90
20459;DHT22;10388;52.314;7.938;2023-04-24T11:55:34;9.20;99.90
20459;DHT22;10388;52.314;7.938;2023-04-24T11:58:05;9.20;99.90
20459;DHT22;10388;52.314;7.938;2023-04-24T12:00:36;9.30;99.90
20459;DHT22;10388;52.314;7.938;2023-04-24T12:03:09;9.40;99.90
20459;DHT22;10388;52.314;7.938;2023-04-24T12:05:41;9.30;99.90
20459;DHT22;10388;52.314;7.938;2023-04-24T12:08:12;9.40;99.90
20459;DHT22;10388;52.314;7.938;2023-04-24T12:10:42;9.30;99.90
20459;DHT22;10388;52.314;7.938;2023-04-24T12:13:13;9.30;99.90
20459;DHT22;10388;52.314;7.938;2023-04-24T12:15:43;9.30;99.90
20459;DHT22;10388;52.314;7.938;2023-04-24T12:18:14;9.20;99.90
20459;DHT22;10388;52.314;7.938;2023-04-24T12:20:47;9.10;99.90
20459;DHT22;10388;52.314;7.938;2023-04-24T12:23:36;9.10;99.90
20459;DHT22;10388;52.314;7.938;2023-04-24T12:26:06;9.00;99.90
20459;DHT22;10388;52.314;7.938;2023-04-24T12:28:38;9.00;99.90
20459;DHT22;10388;52.314;7.938;2023-04-24T12:31:08;9.10;99.90
20459;DHT22;10388;52.314;7.938;2023-04-24T12:33:39;9.20;99.90
20459;DHT22;10388;52.314;7.938;2023-04-24T12:36:10;9.10;99.90
20459;DHT22;10388;52.314;7.938;2023-04-24T12:38:44;9.00;99.90
20459;DHT22;10388;52.314;7.938;2023-04-24T12:41:16;9.10;99.90
20459;DHT22;10388;52.314;7.938;2023-04-24T12:43:52;9.20;99.90
20459;DHT22;10388;52.314;7.938;2023-04-24T12:46:23;9.20;99.90
20459;DHT22;10388;52.314;7.938;2023-04-24T12:48:53;9.20;99.90
20459;DHT22;10388;52.314;7.938;2023-04-24T12:51:24;9.10;99.90
20459;DHT22;10388;52.314;7.938;2023-04-24T12:53:54;9.20;99.90
20459;DHT22;10388;52.314;7.938;2023-04-24T12:56:25;9.30;99.90
20459;DHT22;10388;52.314;7.938;2023-04-24T12:58:56;9.50;99.90
20459;DHT22;10388;52.314;7.938;2023-04-24T13:01:26;9.50;99.90
20459;DHT22;10388;52.314;7.938;2023-04-24T13:03:57;9.50;99.90
20459;DHT22;10388;52.314;7.938;2023-04-24T13:06:27;9.40;99.90
20459;DHT22;10388;52.314;7.938;2023-04-24T13:08:58;9.20;99.90
20459;DHT22;10388;52.314;7.938;2023-04-24T13:11:28;9.20;99.90
20459;DHT22;10388;52.314;7.938;2023-04-24T13:13:59;9.10;99.90
20459;DHT22;10388;52.314;7.938;2023-04-24T13:16:29;9.10;99.90
20459;DHT22;10388;52.314;7.938;2023-04-24T13:19:00;9.20;99.90
20459;DHT22;10388;52.314;7.938;2023-04-24T13:21:30;9.20;99.90
20459;DHT22;10388;52.314;7.938;2023-04-24T13:24:02;9.30;99.90
20459;DHT22;10388;52.314;7.938;2023-04-24T13:26:35;9.30;99.90
20459;DHT22;10388;52.314;7.938;2023-04-24T13:29:05;9.30;99.90
20459;DHT22;10388;52.314;7.938;2023-04-24T13:31:36;9.30;99.90
20459;DHT22;10388;52.314;7.938;2023-04-24T13:34:06;9.40;99.90
20459;DHT22;10388;52.314;7.938;2023-04-24T13:36:37;9.50;99.90
20459;DHT22;10388;52.314;7.938;2023-04-24T13:39:08;9.90;99.90
20459;DHT22;10388;52.314;7.938;2023-04-24T13:41:39;9.90;99.90
20459;DHT22;10388;52.314;7.938;2023-04-24T13:44:10;10.10;99.90
20459;DHT22;10388;52.314;7.938;2023-04-24T13:46:41;10.20;99.90
20459;DHT22;10388;52.314;7.938;2023-04-24T13:49:14;10.40;99.90
20459;DHT22;10388;52.314;7.938;2023-04-24T13:51:45;10.40;99.90
20459;DHT22;10388;52.314;7.938;2023-04-24T13:54:16;10.30;99.90
20459;DHT22;10388;52.314;7.938;2023-04-24T13:56:46;10.30;99.90
20459;DHT22;10388;52.314;7.938;2023-04-24T13:59:17;10.30;99.90
20459;DHT22;10388;52.314;7.938;2023-04-24T14:01:47;10.30;99.90
20459;DHT22;10388;52.314;7.938;2023-04-24T14:04:18;10.20;99.90
20459;DHT22;10388;52.314;7.938;2023-04-24T14:06:48;10.10;99.90
20459;DHT22;10388;52.314;7.938;2023-04-24T14:09:19;10.00;99.90
20459;DHT22;10388;52.314;7.938;2023-04-24T14:11:51;9.80;99.90
20459;DHT22;10388;52.314;7.938;2023-04-24T14:14:22;9.90;99.90
20459;DHT22;10388;52.314;7.938;2023-04-24T14:16:53;9.90;99.90
20459;DHT22;10388;52.314;7.938;2023-04-24T14:19:23;9.90;99.90
20459;DHT22;10388;52.314;7.938;2023-04-24T14:21:54;9.80;99.90
20459;DHT22;10388;52.314;7.938;2023-04-24T14:24:26;9.60;99.90
20459;DHT22;10388;52.314;7.938;2023-04-24T14:26:57;9.40;99.90
20459;DHT22;10388;52.314;7.938;2023-04-24T14:29:28;9.30;99.90
20459;DHT22;10388;52.314;7.938;2023-04-24T14:31:58;9.30;99.90
20459;DHT22;10388;52.314;7.938;2023-04-24T14:34:29;9.30;99.90
20459;DHT22;10388;52.314;7.938;2023-04-24T14:36:59;9.10;99.90
20459;DHT22;10388;52.314;7.938;2023-04-24T14:39:30;9.10;99.90
20459;DHT22;10388;52.314;7.938;2023-04-24T14:42:01;9.10;99.90
20459;DHT22;10388;52.314;7.938;2023-04-24T14:44:31;9.00;99.90
20459;DHT22;10388;52.314;7.938;2023-04-24T14:47:02;9.10;99.90
20459;DHT22;10388;52.314;7.938;2023-04-24T14:49:33;9.20;99.90
20459;DHT22;10388;52.314;7.938;2023-04-24T14:52:03;9.20;99.90
20459;DHT22;10388;52.314;7.938;2023-04-24T14:54:34;9.20;99.90
20459;DHT22;10388;52.314;7.938;2023-04-24T14:57:04;9.20;99.90
20459;DHT22;10388;52.314;7.938;2023-04-24T14:59:35;9.10;99.90
20459;DHT22;10388;52.314;7.938;2023-04-24T15:02:06;9.10;99.90
20459;DHT22;10388;52.314;7.938;2023-04-24T15:04:37;9.20;99.90
20459;DHT22;10388;52.314;7.938;2023-04-24T15:07:07;9.20;99.90
20459;DHT22;10388;52.314;7.938;2023-04-24T15:09:38;9.30;99.90
20459;DHT22;10388;52.314;7.938;2023-04-24T15:12:08;9.40;99.90
20459;DHT22;10388;52.314;7.938;2023-04-24T15:14:40;9.40;99.90
20459;DHT22;10388;52.314;7.938;2023-04-24T15:17:10;9.40;99.90
20459;DHT22;10388;52.314;7.938;2023-04-24T15:19:41;9.30;99.90
20459;DHT22;10388;52.314;7.938;2023-04-24T15:22:13;9.20;99.90
20459;DHT22;10388;52.314;7.938;2023-04-24T15:24:43;9.20;99.90
20459;DHT22;10388;52.314;7.938;2023-04-24T15:27:14;9.10;99.90
20459;DHT22;10388;52.314;7.938;2023-04-24T15:29:44;9.00;99.90
20459;DHT22;10388;52.314;7.938;2023-04-24T15:32:15;8.90;99.90
20459;DHT22;10388;52.314;7.938;2023-04-24T15:34:45;9.00;99.90
20459;DHT22;10388;52.314;7.938;2023-04-24T15:37:16;8.90;99.90
20459;DHT22;10388;52.314;7.938;2023-04-24T15:39:47;8.80;99.90
20459;DHT22;10388;52.314;7.938;2023-04-24T15:42:18;8.90;99.90
20459;DHT22;10388;52.314;7.938;2023-04-24T15:44:48;9.00;99.90
20459;DHT22;10388;52.314;7.938;2023-04-24T15:47:19;9.10;99.90
20459;DHT22;10388;52.314;7.938;2023-04-24T15:49:49;9.10;99.90
20459;DHT22;10388;52.314;7.938;2023-04-24T15:52:21;9.30;99.90
20459;DHT22;10388;52.314;7.938;2023-04-24T15:54:52;9.20;99.90
20459;DHT22;10388;52.314;7.938;2023-04-24T15:57:22;9.10;99.90
20459;DHT22;10388;52.314;7.938;2023-04-24T15:59:53;9.00;99.90
20459;DHT22;10388;52.314;7.938;2023-04-24T16:02:23;8.90;99.90
20459;DHT22;10388;52.314;7.938;2023-04-24T16:04:54;8.80;99.90
20459;DHT22;10388;52.314;7.938;2023-04-24T16:07:25;8.70;99.90
20459;DHT22;10388;52.314;7.938;2023-04-24T16:09:55;8.60;99.90
20459;DHT22;10388;52.314;7.938;2023-04-24T16:12:26;8.50;99.90
20459;DHT22;10388;52.314;7.938;2023-04-24T16:14:57;8.60;99.90
20459;DHT22;10388;52.314;7.938;2023-04-24T16:17:28;8.60;99.90